Latest Weather Observations for Georgetown Airport

IDQ60801

Issued at 2:32 pm EST Sunday 30 April 2017 (issued every 30 minutes, with the page automatically refreshed every 10 minutes)

About weather observations | Map of weather stations | Latest weather observations for QLD | Other Formats
Station Details ID: 030124 Name: GEORGETOWN AIRPORT Lat: -18.30 Lon: 143.53 Height: 301.77 m
Data from the previous 72 hours. | See also: Recent months at Georgetown Airport
Date/Time
EST
Temp
°C
App
Temp
°C
Dew
Point
°C
Rel
Hum
%
Delta-T
°C
Wind Press
QNH
hPa
Press
MSL
hPa
Rain since
9am
mm
Dir  Spd
km/h
Gust
km/h
Spd
kts
Gust
kts
30/02:30pm 30.2 27.7 4.8 20 13.4 N 7 17 4 9 1013.7 - 0.0
30/02:00pm 29.6 26.8 5.0 21 12.9 ESE 9 19 5 10 1014.1 - 0.0
30/01:30pm 29.8 26.4 5.8 22 12.8 ENE 13 20 7 11 1014.6 - 0.0
30/01:00pm 29.5 27.5 6.2 23 12.5 NNE 6 11 3 6 1015.0 - 0.0
30/12:30pm 28.8 25.8 6.2 24 12.1 NE 11 17 6 9 1015.5 - 0.0
30/12:00pm 28.3 25.1 7.0 26 11.5 E 13 22 7 12 1016.0 1014.2 0.0
30/11:30am 27.7 24.2 7.0 27 11.1 ENE 15 20 8 11 1016.5 - 0.0
30/11:00am 27.1 23.2 8.5 31 10.2 ENE 19 28 10 15 1016.9 - 0.0
30/10:30am 26.2 22.8 7.7 31 10.0 E 15 22 8 12 1017.3 - 0.0
30/10:00am 25.3 20.1 7.4 32 9.6 NE 24 28 13 15 1017.5 - 0.0
30/09:30am 24.8 19.9 5.1 28 10.1 NE 20 28 11 15 1017.6 - 0.0
30/09:00am 24.2 20.8 4.0 27 10.1 E 11 19 6 10 1017.6 1015.9 0.0
30/08:30am 22.3 19.0 4.8 32 8.8 E 11 19 6 10 1017.3 - 0.0
30/08:00am 19.8 17.5 5.8 40 7.0 ENE 7 9 4 5 1017.1 - 0.0
30/07:55am 19.2 17.0 6.3 43 6.5 ENE 7 9 4 5 1017.1 - 0.0
30/07:30am 14.2 12.3 6.8 61 3.6 NNE 6 7 3 4 1016.9 - 0.0
30/07:00am 9.9 8.7 4.7 70 2.4 CALM 0 0 0 0 1016.6 - 0.0
30/06:30am 10.2 9.0 4.8 69 2.5 CALM 0 0 0 0 1016.0 - 0.0
30/06:00am 9.7 7.3 4.5 70 2.4 E 6 7 3 4 1015.6 1013.7 0.0
30/05:30am 9.9 7.4 4.7 70 2.4 E 7 9 4 5 1015.3 - 0.0
30/05:00am 10.3 8.7 4.7 68 2.6 E 2 6 1 3 1015.2 - 0.0
30/04:30am 10.1 8.1 4.3 67 2.6 ENE 4 7 2 4 1015.3 - 0.0
30/04:00am 10.9 9.7 4.6 65 2.9 CALM 0 0 0 0 1015.1 - 0.0
30/03:30am 10.8 9.6 4.5 65 2.9 CALM 0 0 0 0 1015.0 - 0.0
30/03:00am 11.3 10.0 4.1 61 3.3 CALM 0 0 0 0 1015.1 1013.3 0.0
30/02:30am 12.0 10.8 4.5 60 3.5 CALM 0 0 0 0 1015.1 - 0.0
30/02:00am 14.3 12.2 4.0 50 4.8 ESE 4 7 2 4 1015.4 - 0.0
30/01:30am 14.7 12.7 4.4 50 4.8 E 4 7 2 4 1015.5 - 0.0
30/01:00am 16.3 13.3 4.0 44 5.8 ESE 9 11 5 6 1015.5 - 0.0
30/12:30am 14.2 11.8 4.5 52 4.6 ENE 6 11 3 6 1015.6 - 0.0
30/12:00am 13.8 11.7 5.7 58 3.9 SE 6 13 3 7 1015.7 1013.8 0.0
 
Date/Time
EST
Temp
°C
App
Temp
°C
Dew
Point
°C
Rel
Hum
%
Delta-T
°C
Wind Press
QNH
hPa
Press
MSL
hPa
Rain since
9am
mm
Dir  Spd
km/h
Gust
km/h
Spd
kts
Gust
kts
29/11:30pm 14.6 11.9 5.7 55 4.3 SSW 9 11 5 6 1015.7 - 0.0
29/11:00pm 15.0 13.1 5.0 51 4.8 SSW 4 9 2 5 1015.7 - 0.0
29/10:30pm 16.5 15.1 5.5 48 5.4 S 2 9 1 5 1015.7 - 0.0
29/10:00pm 18.1 16.9 4.7 41 6.5 CALM 0 6 0 3 1015.6 - 0.0
29/09:30pm 18.3 15.0 4.8 41 6.6 SW 11 17 6 9 1015.9 - 0.0
29/09:00pm 16.6 15.5 5.3 47 5.5 CALM 0 0 0 0 1015.5 1013.7 0.0
29/08:30pm 17.8 16.7 5.1 43 6.2 CALM 0 0 0 0 1015.5 - 0.0
29/08:00pm 18.6 17.4 4.8 40 6.7 CALM 0 2 0 1 1015.3 - 0.0
29/07:43pm 19.8 17.5 4.7 37 7.4 SE 6 7 3 4 1015.0 - 0.0
29/07:41pm 25.2 22.8 4.5 26 10.5 SE 6 7 3 4 1015.0 - 0.0
29/07:30pm 20.0 18.1 4.9 37 7.5 SE 4 7 2 4 1014.9 - 0.0
29/07:00pm 21.6 19.1 4.7 33 8.4 SE 7 13 4 7 1014.5 - 0.0
29/06:30pm 24.4 21.8 3.1 25 10.5 SW 6 7 3 4 1014.1 - 0.0
29/06:00pm 27.2 24.0 3.0 21 12.1 WSW 9 13 5 7 1013.9 1012.1 0.0
29/05:30pm 29.5 26.2 2.7 18 13.6 SW 9 11 5 6 1013.7 - 0.0
29/05:00pm 30.2 27.0 3.3 18 13.8 SSW 9 13 5 7 1013.4 - 0.0
29/04:30pm 30.4 26.7 2.6 17 14.1 W 11 15 6 8 1013.1 - 0.0
29/04:00pm 30.4 27.5 2.6 17 14.1 WNW 7 15 4 8 1013.0 - 0.0
29/03:30pm 30.5 27.2 2.7 17 14.1 SW 9 15 5 8 1013.1 - 0.0
29/03:00pm 30.1 27.3 3.2 18 13.8 SE 7 13 4 7 1013.2 1011.4 0.0
29/02:30pm 30.3 27.5 3.4 18 13.8 WSW 7 13 4 7 1013.4 - 0.0
29/02:00pm 29.9 27.0 4.5 20 13.3 SSE 9 13 5 7 1013.7 - 0.0
29/01:30pm 29.5 26.5 4.2 20 13.1 ENE 9 13 5 7 1014.2 - 0.0
29/01:00pm 28.4 25.4 4.0 21 12.5 E 9 17 5 9 1014.8 - 0.0
29/12:30pm 27.8 24.2 2.8 20 12.5 ESE 11 20 6 11 1015.3 - 0.0
29/12:00pm 27.3 23.9 1.7 19 12.5 SE 9 17 5 9 1015.7 1014.0 0.0
29/11:30am 26.7 22.4 1.2 19 12.3 ESE 13 24 7 13 1016.1 - 0.0
29/11:00am 26.2 22.2 0.8 19 12.1 ESE 11 19 6 10 1016.7 - 0.0
29/10:30am 25.8 20.8 1.2 20 11.8 E 17 22 9 12 1016.9 - 0.0
29/10:00am 24.7 19.4 1.6 22 11.1 E 19 28 10 15 1017.0 - 0.0
29/09:30am 23.4 18.0 1.1 23 10.5 E 19 28 10 15 1017.0 - 0.0
29/09:00am 22.4 16.4 0.9 24 10.0 E 22 30 12 16 1016.8 1015.0 0.0
29/08:30am 21.7 17.1 1.4 26 9.5 E 15 24 8 13 1016.6 - 0.0
29/08:00am 20.5 17.3 2.8 31 8.4 E 9 17 5 9 1016.5 - 0.0
29/07:30am 16.4 15.0 3.8 43 5.9 CALM 0 0 0 0 1016.4 - 0.0
29/07:00am 14.8 12.3 1.7 41 5.8 ESE 4 7 2 4 1016.1 - 0.0
29/06:30am 16.8 13.6 0.9 34 7.1 E 7 11 4 6 1015.7 - 0.0
29/06:00am 17.2 13.7 1.2 34 7.2 ESE 9 15 5 8 1015.3 1013.5 0.0
29/05:30am 17.0 13.5 1.0 34 7.1 E 9 11 5 6 1015.1 - 0.0
29/05:00am 17.6 14.1 1.2 33 7.4 E 9 15 5 8 1014.9 - 0.0
29/04:30am 18.3 14.8 1.3 32 7.7 ESE 9 17 5 9 1014.8 - 0.0
29/04:00am 18.4 14.9 1.4 32 7.7 ESE 9 13 5 7 1014.8 - 0.0
29/03:30am 18.9 15.1 1.9 32 7.9 ESE 11 17 6 9 1014.9 - 0.0
29/03:00am 18.5 15.0 1.5 32 7.8 ESE 9 13 5 7 1015.2 1013.4 0.0
29/02:30am 19.3 15.8 1.3 30 8.2 ESE 9 15 5 8 1015.3 - 0.0
29/02:00am 19.3 15.4 1.3 30 8.2 ESE 11 15 6 8 1015.3 - 0.0
29/01:30am 19.5 16.1 1.9 31 8.2 SE 9 15 5 8 1015.4 - 0.0
29/01:00am 19.1 16.2 2.5 33 7.8 SE 7 13 4 7 1015.5 - 0.0
29/12:30am 19.0 15.5 3.6 36 7.4 SSE 11 15 6 8 1015.7 - 0.0
29/12:00am 15.3 12.4 4.7 49 5.0 SSE 9 11 5 6 1016.1 1014.3 0.0
 
Date/Time
EST
Temp
°C
App
Temp
°C
Dew
Point
°C
Rel
Hum
%
Delta-T
°C
Wind Press
QNH
hPa
Press
MSL
hPa
Rain since
9am
mm
Dir  Spd
km/h
Gust
km/h
Spd
kts
Gust
kts
28/11:30pm 15.7 13.0 3.8 45 5.6 SW 7 9 4 5 1016.2 - 0.0
28/11:00pm 16.9 14.2 2.9 39 6.5 SSW 6 9 3 5 1016.2 - 0.0
28/10:30pm 19.0 16.1 2.8 34 7.6 S 7 9 4 5 1015.9 - 0.0
28/10:00pm 19.5 16.6 2.8 33 7.9 SW 7 11 4 6 1015.8 - 0.0
28/09:30pm 19.0 16.1 4.4 38 7.1 SSW 9 11 5 6 1015.8 - 0.0
28/09:00pm 20.4 18.2 5.2 37 7.6 SSE 6 7 3 4 1015.9 1014.1 0.0
28/08:30pm 21.5 19.8 5.8 36 8.0 S 4 7 2 4 1015.6 - 0.0
28/08:00pm 22.2 19.4 6.8 37 8.0 SSW 11 15 6 8 1015.2 - 0.0
28/07:30pm 22.7 20.8 7.7 38 8.0 SW 7 9 4 5 1014.6 - 0.0
28/07:00pm 23.6 21.3 7.3 35 8.6 SW 9 11 5 6 1014.3 - 0.0
28/06:30pm 24.6 22.3 7.3 33 9.2 SW 9 11 5 6 1013.9 - 0.0
28/06:00pm 27.0 24.2 6.9 28 10.8 SSW 11 19 6 10 1013.6 1011.8 0.0
28/05:30pm 28.5 26.6 7.7 27 11.4 SSW 7 13 4 7 1013.2 - 0.0
28/05:00pm 30.0 27.8 7.8 25 12.3 SW 9 15 5 8 1012.9 - 0.0
28/04:30pm 30.0 28.2 7.8 25 12.3 NNE 7 11 4 6 1012.8 - 0.0
28/04:00pm 30.2 28.0 8.0 25 12.3 SSW 9 13 5 7 1012.9 - 0.0
28/03:30pm 30.5 28.3 7.7 24 12.6 SW 9 13 5 7 1012.9 - 0.0
28/03:00pm 30.1 28.3 7.9 25 12.3 N 7 13 4 7 1013.0 1011.2 0.0
28/02:30pm 29.2 27.4 7.2 25 12.0 WSW 6 9 3 5 1013.3 - 0.0
28/02:00pm 29.6 27.2 6.9 24 12.3 SSW 9 13 5 7 1013.6 - 0.0
28/01:30pm 28.9 26.9 6.9 25 11.9 E 7 15 4 8 1014.1 - 0.0
28/01:00pm 28.0 25.7 5.6 24 11.8 S 7 17 4 9 1014.8 - 0.0
28/12:30pm 27.2 24.7 4.9 24 11.5 SSE 7 13 4 7 1015.3 - 0.0
28/12:00pm 27.2 24.3 4.9 24 11.5 SE 9 17 5 9 1015.7 1013.9 0.0
28/11:30am 26.5 23.2 4.3 24 11.3 E 11 19 6 10 1016.3 - 0.0
28/11:00am 26.0 22.2 3.9 24 11.2 ESE 13 22 7 12 1016.7 - 0.0
28/10:30am 24.3 20.7 3.0 25 10.5 ESE 11 20 6 11 1017.2 - 0.0
28/10:00am 23.5 19.1 2.9 26 10.0 ESE 15 20 8 11 1017.4 - 0.0
28/09:30am 22.4 17.6 2.5 27 9.6 ESE 17 26 9 14 1017.4 - 0.0
28/09:00am 21.5 16.1 2.2 28 9.1 ESE 20 32 11 17 1017.2 1015.4 0.0
28/08:30am 20.9 16.0 2.2 29 8.8 SE 17 30 9 16 1017.1 - 0.0
28/08:00am 20.6 16.5 2.0 29 8.7 ESE 13 20 7 11 1016.8 - 0.0
28/07:30am 19.3 15.5 1.8 31 8.1 SE 11 24 6 13 1016.4 - 0.0
28/07:00am 18.1 14.3 1.6 33 7.5 SE 11 17 6 9 1016.1 - 0.0
28/06:30am 17.5 13.7 1.9 35 7.1 SSE 11 17 6 9 1015.8 - 0.0
28/06:00am 17.0 14.1 2.6 38 6.6 SSE 7 13 4 7 1015.5 1013.7 0.0
28/05:30am 16.6 13.4 3.3 41 6.2 SSE 9 13 5 7 1015.5 - 0.0
28/05:00am 15.1 12.3 3.3 45 5.4 S 7 9 4 5 1015.5 - 0.0
28/04:30am 16.2 13.5 2.9 41 6.1 SSE 6 7 3 4 1015.2 - 0.0
28/04:00am 16.6 14.0 3.0 40 6.3 SSE 6 11 3 6 1015.0 - 0.0
28/03:30am 17.9 14.6 2.6 36 7.1 S 9 13 5 7 1015.1 - 0.0
28/03:00am 18.2 14.5 2.5 35 7.3 S 11 15 6 8 1015.1 1013.3 0.0
28/02:30am 18.5 15.3 2.8 35 7.4 S 9 13 5 7 1015.2 - 0.0
28/02:00am 18.7 15.4 2.5 34 7.6 S 9 11 5 6 1015.2 - 0.0
28/01:30am 18.9 15.6 2.7 34 7.6 S 9 13 5 7 1015.4 - 0.0
28/01:00am 19.4 16.1 2.7 33 7.9 S 9 11 5 6 1015.6 - 0.0
28/12:30am 20.0 17.1 2.8 32 8.2 S 7 11 4 6 1015.7 - 0.0
28/12:00am 20.9 17.7 3.2 31 8.5 S 9 13 5 7 1015.8 1014.0 0.0
 
Date/Time
EST
Temp
°C
App
Temp
°C
Dew
Point
°C
Rel
Hum
%
Delta-T
°C
Wind Press
QNH
hPa
Press
MSL
hPa
Rain since
9am
mm
Dir  Spd
km/h
Gust
km/h
Spd
kts
Gust
kts
27/11:30pm 21.5 18.3 3.2 30 8.8 S 9 17 5 9 1015.6 - 0.0
27/11:00pm 22.5 18.5 3.1 28 9.4 S 13 20 7 11 1015.5 - 0.0
27/10:30pm 22.9 19.8 3.4 28 9.6 S 9 15 5 8 1015.6 - 0.0
27/10:00pm 23.2 19.8 4.2 29 9.5 SSW 11 19 6 10 1015.5 - 0.0
27/09:30pm 23.1 19.4 4.6 30 9.3 SSW 13 20 7 11 1015.5 - 0.0
27/09:00pm 23.4 20.2 4.9 30 9.3 SSW 11 15 6 8 1015.5 1013.7 0.0
27/08:30pm 24.1 20.1 5.0 29 9.7 SW 15 20 8 11 1015.1 - 0.0
27/08:00pm 24.7 20.3 5.0 28 10.1 SW 17 24 9 13 1014.8 - 0.0
27/07:30pm 25.5 20.9 5.7 28 10.3 SW 19 28 10 15 1014.3 - 0.0
27/07:00pm 26.0 22.3 6.1 28 10.5 SW 15 24 8 13 1014.2 - 0.0
27/06:30pm 26.6 23.2 6.1 27 10.8 SW 13 22 7 12 1013.8 - 0.0
27/06:00pm 28.3 23.9 6.4 25 11.7 SW 19 28 10 15 1013.5 1011.6 0.0
27/05:30pm 29.6 25.7 6.9 24 12.3 SW 17 24 9 13 1013.0 - 0.0
27/05:00pm 30.6 26.1 7.1 23 12.9 SW 20 28 11 15 1012.7 - 0.0
27/04:30pm 31.5 27.2 7.9 23 13.2 SW 20 30 11 16 1012.4 - 0.0
27/04:00pm 32.1 28.9 8.4 23 13.4 SSW 15 28 8 15 1012.3 - 0.0
27/03:30pm 32.0 27.8 8.3 23 13.3 SW 20 30 11 16 1012.4 - 0.0
27/03:00pm 32.6 29.5 8.8 23 13.5 SW 15 32 8 17 1012.3 1010.5 0.0

Other Formats:

Comma delimited format used in spreadsheet applications
http://www.bom.gov.au/fwo/IDQ60801/IDQ60801.94274.axf

JavaScript Object Notation format (JSON) in row-major order
http://www.bom.gov.au/fwo/IDQ60801/IDQ60801.94274.json